首页
METAR-TAF:

METAR-TAF

机场 :

波哥大, 哥伦比亚

埃尔多拉多国际机场

纬度: 04-43N, 经度: 074-09W, 海拔: 2547米

当前天气观测

该预报发布于14分钟前的13:00 UTC
风速6节,风向东北
温度 13°C
湿度 82%
气压 1028 hPa
能见度10公里或以上
少量云层高于2000英尺
多云层高于7000英尺

METAR: SKBO 171300Z 04006KT 9999 FEW020 BKN070 13/10 A3035

时间: 08:14 (13:14 UTC)

预报

该预报发布于2小时和14分钟前的11:00 UTC
预报有效从17日的 12点(UTC)到 18日的 12点(UTC)
风速6节,风向东北
能见度10公里或以上
散云层高于2000英尺
散云层高于10000英尺
成为
从 17日的 15点(UTC)到 17日的 17点(UTC)
风速8节,风向南转南东
短暂存在
从 17日的 20点(UTC)到 17日的 22点(UTC)
能見度: 8000
散云层高于1700英尺, 塔状积云.
多云层高于8000英尺
毛毛雨
成为
从 18日的 01点(UTC)到 18日的 03点(UTC)
风速2节,风向多变

TAF: SKBO 171100Z 1712/1812 05006KT 9999 SCT020 SCT100 BECMG 1715/1717 16008KT TEMPO 1720/1722 8000 DZ SCT017TCU BKN080 BECMG 1801/1803 VRB02KT TX19/1718Z TN09/1811Z

超过4000个机场的气象观测和天气预报(METAR&TAF报告)。

可查询的气象台以黄色和红色小点在地图上表示。

将鼠标移到小点上方,可查看气象台名称。

然后点击查看天气观测和预报。

如需切换地图:点击带黑十字的绿色按钮放大地图;点击带横线的绿色按钮缩小地图;或者点击绿色箭头查看邻近地区的地图。


METAR-TAF: